createdAt,value
2023-05-06T00:00:59.130Z,0.00
2023-05-06T00:01:59.168Z,0.00
2023-05-06T00:02:59.201Z,0.00
2023-05-06T00:03:59.195Z,0.00
2023-05-06T00:04:59.097Z,0.00
2023-05-06T00:05:59.102Z,0.00
2023-05-06T00:06:59.071Z,0.00
2023-05-06T00:07:59.101Z,0.00
2023-05-06T00:08:59.051Z,0.00
2023-05-06T00:09:59.024Z,0.00
2023-05-06T00:10:59.052Z,0.00
2023-05-06T00:11:58.999Z,0.00
2023-05-06T00:12:59.150Z,0.00
2023-05-06T00:13:58.988Z,0.00
2023-05-06T00:14:58.975Z,0.00
2023-05-06T00:15:59.007Z,0.00
2023-05-06T00:16:58.967Z,0.00
2023-05-06T00:17:58.948Z,0.00
2023-05-06T00:18:58.940Z,0.00
2023-05-06T00:19:59.002Z,0.00
2023-05-06T00:20:58.926Z,0.00
2023-05-06T00:21:58.884Z,0.00
2023-05-06T00:22:58.880Z,0.00
2023-05-06T00:23:58.905Z,0.00
2023-05-06T00:24:58.934Z,0.00
2023-05-06T00:25:58.841Z,0.00
2023-05-06T00:26:58.851Z,0.00
2023-05-06T00:27:58.895Z,0.00
2023-05-06T00:28:58.846Z,0.00
2023-05-06T00:29:58.841Z,0.00
2023-05-06T00:30:58.805Z,0.00
2023-05-06T00:31:58.843Z,0.00
2023-05-06T00:32:58.819Z,0.00
2023-05-06T00:33:58.764Z,0.00
2023-05-06T00:34:58.801Z,0.00
2023-05-06T00:35:58.755Z,0.00
2023-05-06T00:36:58.737Z,0.00
2023-05-06T00:37:58.745Z,0.00
2023-05-06T00:38:58.733Z,0.00
2023-05-06T00:39:58.687Z,0.00
2023-05-06T00:40:58.693Z,0.00
2023-05-06T00:41:58.683Z,0.00
2023-05-06T00:42:58.692Z,0.00
2023-05-06T00:43:58.666Z,0.00
2023-05-06T00:44:58.641Z,0.00
2023-05-06T00:45:58.637Z,0.00
2023-05-06T00:46:58.625Z,0.00
2023-05-06T00:47:58.687Z,0.00
2023-05-06T00:48:58.625Z,0.00
2023-05-06T00:49:58.662Z,0.00
2023-05-06T00:50:58.586Z,0.00
2023-05-06T00:51:58.557Z,0.00
2023-05-06T00:52:58.553Z,0.00
2023-05-06T00:53:58.586Z,0.00
2023-05-06T00:54:58.554Z,0.00
2023-05-06T00:55:58.532Z,0.00
2023-05-06T00:56:58.572Z,0.00
2023-05-06T00:57:58.491Z,0.00
2023-05-06T00:58:58.506Z,0.00
2023-05-06T00:59:58.471Z,0.00
2023-05-06T01:00:58.493Z,0.00
2023-05-06T01:01:58.445Z,0.00
2023-05-06T01:02:58.603Z,0.00
2023-05-06T01:03:58.730Z,0.00
2023-05-06T01:04:58.479Z,0.00
2023-05-06T01:05:58.412Z,0.00
2023-05-06T01:06:58.408Z,0.00
2023-05-06T01:07:58.405Z,0.00
2023-05-06T01:08:58.364Z,0.00
2023-05-06T01:09:58.360Z,0.00
2023-05-06T01:10:58.383Z,0.00
2023-05-06T01:11:58.378Z,0.00
2023-05-06T01:12:58.429Z,0.00
2023-05-06T01:13:58.333Z,0.00
2023-05-06T01:14:58.309Z,0.00
2023-05-06T01:15:58.295Z,0.00
2023-05-06T01:16:58.430Z,0.00
2023-05-06T01:17:58.316Z,0.00
2023-05-06T01:18:58.302Z,0.00
2023-05-06T01:19:58.259Z,0.00
2023-05-06T01:20:58.296Z,0.00
2023-05-06T01:21:58.234Z,0.00
2023-05-06T01:22:58.227Z,0.00
2023-05-06T01:23:58.616Z,0.00
2023-05-06T01:24:58.270Z,0.00
2023-05-06T01:25:58.203Z,0.00
2023-05-06T01:26:58.179Z,0.00
2023-05-06T01:27:58.168Z,0.00
2023-05-06T01:28:58.185Z,0.00
2023-05-06T01:29:58.148Z,0.00
2023-05-06T01:30:58.189Z,0.00
2023-05-06T01:31:58.126Z,0.00
2023-05-06T01:32:58.150Z,0.00
2023-05-06T01:33:58.104Z,0.00
2023-05-06T01:34:58.109Z,0.00
2023-05-06T01:35:58.106Z,0.00
2023-05-06T01:36:58.100Z,0.00
2023-05-06T01:37:58.054Z,0.00
2023-05-06T01:38:58.087Z,0.00
2023-05-06T01:39:58.070Z,0.00
2023-05-06T01:40:58.032Z,0.00
2023-05-06T01:41:58.024Z,0.00
2023-05-06T01:42:58.100Z,0.00
2023-05-06T01:43:58.007Z,0.00
2023-05-06T01:44:57.998Z,0.00
2023-05-06T01:45:57.981Z,0.00
2023-05-06T01:46:57.983Z,0.00
2023-05-06T01:47:57.993Z,0.00
2023-05-06T01:48:58.087Z,0.00
2023-05-06T01:49:57.949Z,0.00
2023-05-06T01:50:57.984Z,0.00
2023-05-06T01:51:57.969Z,0.00
2023-05-06T01:52:57.910Z,0.00
2023-05-06T01:53:57.897Z,0.00
2023-05-06T01:54:57.881Z,0.00
2023-05-06T01:55:57.854Z,0.00
2023-05-06T01:56:57.861Z,0.00
2023-05-06T01:57:57.873Z,0.00
2023-05-06T01:58:59.385Z,0.00
2023-05-06T01:59:57.817Z,0.00
2023-05-06T02:00:57.798Z,0.00
2023-05-06T02:01:57.817Z,0.00
2023-05-06T02:02:57.905Z,0.00
2023-05-06T02:03:57.882Z,0.00
2023-05-06T02:04:57.794Z,0.00
2023-05-06T02:05:57.748Z,0.00
2023-05-06T02:06:57.762Z,0.00
2023-05-06T02:07:57.750Z,0.00
2023-05-06T02:08:57.745Z,0.00
2023-05-06T02:09:57.706Z,0.00
2023-05-06T02:10:57.695Z,0.00
2023-05-06T02:11:57.706Z,0.00
2023-05-06T02:12:57.799Z,0.00
2023-05-06T02:13:57.655Z,0.00
2023-05-06T02:14:57.674Z,0.00
2023-05-06T02:15:57.715Z,0.00
2023-05-06T02:16:57.642Z,0.00
2023-05-06T02:17:57.671Z,0.00
2023-05-06T02:18:57.601Z,0.00
2023-05-06T02:19:57.598Z,0.00
2023-05-06T02:20:57.587Z,0.00
2023-05-06T02:21:57.652Z,0.00
2023-05-06T02:22:57.552Z,0.00
2023-05-06T02:23:57.625Z,0.00
2023-05-06T02:24:57.533Z,0.00
2023-05-06T02:25:57.534Z,0.00
2023-05-06T02:26:57.528Z,0.00
2023-05-06T02:27:57.502Z,0.00
2023-05-06T02:28:57.501Z,0.00
2023-05-06T02:29:57.487Z,0.00
2023-05-06T02:30:57.494Z,0.00
2023-05-06T02:31:57.592Z,0.00
2023-05-06T02:32:57.546Z,0.00
2023-05-06T02:33:57.444Z,0.00
2023-05-06T02:34:57.443Z,0.00
2023-05-06T02:35:57.450Z,0.00
2023-05-06T02:36:57.435Z,0.00
2023-05-06T02:37:57.396Z,0.00
2023-05-06T02:38:57.377Z,0.00
2023-05-06T02:39:57.361Z,0.00
2023-05-06T02:40:57.381Z,0.00
2023-05-06T02:41:57.356Z,0.00
2023-05-06T02:42:57.388Z,0.00
2023-05-06T02:43:57.362Z,0.00
2023-05-06T02:44:57.325Z,0.00
2023-05-06T02:45:57.384Z,0.00
2023-05-06T02:46:57.296Z,0.00
2023-05-06T02:47:57.321Z,0.00
2023-05-06T02:48:57.264Z,0.00
2023-05-06T02:49:57.277Z,0.00
2023-05-06T02:50:57.368Z,0.00
2023-05-06T02:51:57.261Z,0.00
2023-05-06T02:52:57.226Z,0.00
2023-05-06T02:53:57.218Z,0.00
2023-05-06T02:54:57.205Z,0.00
2023-05-06T02:55:57.198Z,0.00
2023-05-06T02:56:57.185Z,0.00
2023-05-06T02:57:57.181Z,0.00
2023-05-06T02:58:57.166Z,0.00
2023-05-06T02:59:57.158Z,0.00
2023-05-06T03:00:57.148Z,0.00
2023-05-06T03:01:57.134Z,0.00
2023-05-06T03:02:57.148Z,0.00
2023-05-06T03:03:57.186Z,0.00
2023-05-06T03:04:57.096Z,0.00
2023-05-06T03:05:57.087Z,0.00
2023-05-06T03:06:57.066Z,0.00
2023-05-06T03:07:57.082Z,0.00
2023-05-06T03:08:57.414Z,0.00
2023-05-06T03:09:57.068Z,0.00
2023-05-06T03:10:57.031Z,0.00
2023-05-06T03:11:57.038Z,0.00
2023-05-06T03:12:57.034Z,0.00
2023-05-06T03:13:57.004Z,0.00
2023-05-06T03:14:56.999Z,0.00
2023-05-06T03:15:56.990Z,0.00
2023-05-06T03:16:57.038Z,0.00
2023-05-06T03:17:57.013Z,0.00
2023-05-06T03:18:56.951Z,0.00
2023-05-06T03:19:56.947Z,0.00
2023-05-06T03:20:56.963Z,0.00
2023-05-06T03:21:56.927Z,0.00
2023-05-06T03:22:56.963Z,0.00
2023-05-06T03:23:56.892Z,0.00
2023-05-06T03:24:56.898Z,0.00
2023-05-06T03:25:56.864Z,0.00
2023-05-06T03:26:56.950Z,0.00
2023-05-06T03:27:56.849Z,0.00
2023-05-06T03:28:56.845Z,0.00
2023-05-06T03:29:56.829Z,0.00
2023-05-06T03:30:56.812Z,0.00
2023-05-06T03:31:56.925Z,0.00
2023-05-06T03:32:56.872Z,0.00
2023-05-06T03:33:56.782Z,0.00
2023-05-06T03:34:56.776Z,0.00
2023-05-06T03:35:56.802Z,0.00
2023-05-06T03:36:56.750Z,0.00
2023-05-06T03:37:56.743Z,0.00
2023-05-06T03:38:56.748Z,0.00
2023-05-06T03:39:56.724Z,0.00
2023-05-06T03:40:56.723Z,0.00
2023-05-06T03:41:56.716Z,0.00
2023-05-06T03:42:56.675Z,0.00
2023-05-06T03:43:56.679Z,0.00
2023-05-06T03:44:56.671Z,0.00
2023-05-06T03:45:56.709Z,0.00
2023-05-06T03:46:56.644Z,0.00
2023-05-06T03:47:58.478Z,0.00
2023-05-06T03:48:56.643Z,0.00
2023-05-06T03:49:56.602Z,5.62
2023-05-06T03:50:56.596Z,5.62
2023-05-06T03:51:56.568Z,5.62
2023-05-06T03:52:56.591Z,5.62
2023-05-06T03:53:56.556Z,5.62
2023-05-06T03:54:56.547Z,5.62
2023-05-06T03:55:56.558Z,5.62
2023-05-06T03:56:56.533Z,11.25
2023-05-06T03:57:56.515Z,11.25
2023-05-06T03:58:56.519Z,11.25
2023-05-06T03:59:56.544Z,11.25
2023-05-06T04:00:56.501Z,16.88
2023-05-06T04:01:56.589Z,16.88
2023-05-06T04:02:56.493Z,16.88
2023-05-06T04:03:56.497Z,22.50
2023-05-06T04:04:56.467Z,22.50
2023-05-06T04:05:56.422Z,22.50
2023-05-06T04:06:56.422Z,22.50
2023-05-06T04:07:56.400Z,28.12
2023-05-06T04:08:56.406Z,28.12
2023-05-06T04:09:56.378Z,28.12
2023-05-06T04:10:56.369Z,33.75
2023-05-06T04:11:56.346Z,33.75
2023-05-06T04:12:56.415Z,39.38
2023-05-06T04:13:56.374Z,39.38
2023-05-06T04:14:56.376Z,39.38
2023-05-06T04:15:56.327Z,45.00
2023-05-06T04:16:56.308Z,45.00
2023-05-06T04:17:56.299Z,45.00
2023-05-06T04:18:56.286Z,50.62
2023-05-06T04:19:56.307Z,50.62
2023-05-06T04:20:56.262Z,50.62
2023-05-06T04:21:56.237Z,56.25
2023-05-06T04:22:56.243Z,56.25
2023-05-06T04:23:56.236Z,61.88
2023-05-06T04:24:56.252Z,61.88
2023-05-06T04:25:56.197Z,67.50
2023-05-06T04:26:56.196Z,67.50
2023-05-06T04:27:56.177Z,73.12
2023-05-06T04:28:56.219Z,78.75
2023-05-06T04:29:56.149Z,78.75
2023-05-06T04:30:56.137Z,78.75
2023-05-06T04:31:56.167Z,84.38
2023-05-06T04:32:56.191Z,84.38
2023-05-06T04:33:56.111Z,84.38
2023-05-06T04:34:56.103Z,90.00
2023-05-06T04:35:56.091Z,90.00
2023-05-06T04:36:56.123Z,95.62
2023-05-06T04:37:56.109Z,95.62
2023-05-06T04:38:56.059Z,95.62
2023-05-06T04:39:56.041Z,101.25
2023-05-06T04:40:56.039Z,101.25
2023-05-06T04:41:56.112Z,101.25
2023-05-06T04:42:56.021Z,101.25
2023-05-06T04:43:56.004Z,106.88
2023-05-06T04:44:56.089Z,106.88
2023-05-06T04:45:55.990Z,106.88
2023-05-06T04:46:55.996Z,112.50
2023-05-06T04:47:56.006Z,112.50
2023-05-06T04:48:55.953Z,118.12
2023-05-06T04:49:56.001Z,118.12
2023-05-06T04:50:55.926Z,118.12
2023-05-06T04:51:56.072Z,123.75
2023-05-06T04:52:55.920Z,123.75
2023-05-06T04:53:55.892Z,123.75
2023-05-06T04:54:55.882Z,129.38
2023-05-06T04:55:55.876Z,129.38
2023-05-06T04:56:55.875Z,135.00
2023-05-06T04:57:55.859Z,135.00
2023-05-06T04:58:55.854Z,135.00
2023-05-06T04:59:55.840Z,140.62
2023-05-06T05:00:55.871Z,146.25
2023-05-06T05:01:55.819Z,151.88
2023-05-06T05:02:55.934Z,146.25
2023-05-06T05:03:55.780Z,146.25
2023-05-06T05:04:55.807Z,151.88
2023-05-06T05:05:55.771Z,151.88
2023-05-06T05:06:55.747Z,157.50
2023-05-06T05:07:55.781Z,157.50
2023-05-06T05:08:55.744Z,157.50
2023-05-06T05:09:55.735Z,157.50
2023-05-06T05:10:55.728Z,163.12
2023-05-06T05:11:55.699Z,163.12
2023-05-06T05:12:55.727Z,163.12
2023-05-06T05:13:56.895Z,168.75
2023-05-06T05:14:55.683Z,168.75
2023-05-06T05:15:55.668Z,168.75
2023-05-06T05:16:55.676Z,174.38
2023-05-06T05:17:55.722Z,174.38
2023-05-06T05:18:55.655Z,180.00
2023-05-06T05:19:55.614Z,180.00
2023-05-06T05:20:55.609Z,185.62
2023-05-06T05:21:55.574Z,185.62
2023-05-06T05:22:55.578Z,185.62
2023-05-06T05:23:55.582Z,185.62
2023-05-06T05:24:55.546Z,185.62
2023-05-06T05:25:55.539Z,191.25
2023-05-06T05:26:55.527Z,185.62
2023-05-06T05:27:55.519Z,191.25
2023-05-06T05:28:55.518Z,191.25
2023-05-06T05:29:55.500Z,191.25
2023-05-06T05:30:55.542Z,196.88
2023-05-06T05:31:55.462Z,196.88
2023-05-06T05:32:55.592Z,202.50
2023-05-06T05:33:55.525Z,202.50
2023-05-06T05:34:55.540Z,202.50
2023-05-06T05:35:55.427Z,208.12
2023-05-06T05:36:55.453Z,219.38
2023-05-06T05:37:55.404Z,315.00
2023-05-06T05:38:55.416Z,444.38
2023-05-06T05:39:55.483Z,489.38
2023-05-06T05:40:55.425Z,489.38
2023-05-06T05:41:55.362Z,427.50
2023-05-06T05:42:55.365Z,433.12
2023-05-06T05:43:55.762Z,416.25
2023-05-06T05:44:55.333Z,365.62
2023-05-06T05:45:55.374Z,461.25
2023-05-06T05:46:55.323Z,551.25
2023-05-06T05:47:55.433Z,540.00
2023-05-06T05:48:55.284Z,416.25
2023-05-06T05:49:55.272Z,376.88
2023-05-06T05:50:55.265Z,545.62
2023-05-06T05:51:55.279Z,669.38
2023-05-06T05:52:55.264Z,720.00
2023-05-06T05:53:55.287Z,759.38
2023-05-06T05:54:55.223Z,787.50
2023-05-06T05:55:55.205Z,855.00
2023-05-06T05:56:55.214Z,838.12
2023-05-06T05:57:55.187Z,843.75
2023-05-06T05:58:55.176Z,866.25
2023-05-06T05:59:55.161Z,888.75
2023-05-06T06:00:55.179Z,888.75
2023-05-06T06:01:55.168Z,905.62
2023-05-06T06:02:55.239Z,905.62
2023-05-06T06:03:55.258Z,916.88
2023-05-06T06:04:55.185Z,933.75
2023-05-06T06:05:55.099Z,950.62
2023-05-06T06:06:55.147Z,1006.88
2023-05-06T06:07:55.069Z,1051.88
2023-05-06T06:08:55.056Z,950.62
2023-05-06T06:09:55.049Z,849.38
2023-05-06T06:10:55.058Z,849.38
2023-05-06T06:11:55.044Z,933.75
2023-05-06T06:12:55.045Z,877.50
2023-05-06T06:13:55.004Z,1057.50
2023-05-06T06:14:55.001Z,1096.88
2023-05-06T06:15:54.985Z,1023.75
2023-05-06T06:16:54.974Z,1203.75
2023-05-06T06:17:55.030Z,1248.75
2023-05-06T06:18:54.954Z,1243.12
2023-05-06T06:19:54.946Z,1265.62
2023-05-06T06:20:54.949Z,1153.12
2023-05-06T06:21:54.913Z,1074.38
2023-05-06T06:22:54.918Z,1006.88
2023-05-06T06:23:54.930Z,1203.75
2023-05-06T06:24:54.899Z,1046.25
2023-05-06T06:25:54.900Z,1293.75
2023-05-06T06:26:54.854Z,1299.38
2023-05-06T06:27:54.863Z,1366.88
2023-05-06T06:28:54.844Z,1473.75
2023-05-06T06:29:54.851Z,1524.38
2023-05-06T06:30:54.828Z,1591.88
2023-05-06T06:31:54.837Z,1631.25
2023-05-06T06:32:54.923Z,1653.75
2023-05-06T06:33:54.791Z,1648.12
2023-05-06T06:34:54.790Z,1642.50
2023-05-06T06:35:54.798Z,1440.00
2023-05-06T06:36:54.749Z,1726.88
2023-05-06T06:37:54.739Z,1771.88
2023-05-06T06:38:54.775Z,1811.25
2023-05-06T06:39:54.714Z,1788.75
2023-05-06T06:40:54.705Z,1867.50
2023-05-06T06:41:54.695Z,1839.38
2023-05-06T06:42:54.795Z,1794.38
2023-05-06T06:43:54.694Z,1749.38
2023-05-06T06:44:54.663Z,1783.12
2023-05-06T06:45:54.673Z,1845.00
2023-05-06T06:46:54.636Z,1783.12
2023-05-06T06:47:54.741Z,1850.62
2023-05-06T06:48:54.747Z,1822.50
2023-05-06T06:49:54.611Z,1856.25
2023-05-06T06:50:54.619Z,1800.00
2023-05-06T06:51:54.605Z,1743.75
2023-05-06T06:52:54.640Z,1665.00
2023-05-06T06:53:54.589Z,1693.12
2023-05-06T06:54:54.545Z,1620.00
2023-05-06T06:55:54.581Z,1620.00
2023-05-06T06:56:54.660Z,1687.50
2023-05-06T06:57:54.526Z,1738.12
2023-05-06T06:58:54.514Z,1485.00
2023-05-06T06:59:54.513Z,1395.00
2023-05-06T07:00:54.614Z,1726.88
2023-05-06T07:01:54.555Z,1743.75
2023-05-06T07:02:54.531Z,1738.12
2023-05-06T07:03:54.473Z,1558.12
2023-05-06T07:04:54.444Z,1395.00
2023-05-06T07:05:54.438Z,1580.62
2023-05-06T07:06:54.484Z,1766.25
2023-05-06T07:07:54.436Z,1794.38
2023-05-06T07:08:54.449Z,1906.88
2023-05-06T07:09:54.380Z,2013.75
2023-05-06T07:10:54.374Z,2115.00
2023-05-06T07:11:54.377Z,2092.50
2023-05-06T07:12:54.469Z,2131.88
2023-05-06T07:13:54.350Z,2120.62
2023-05-06T07:14:54.345Z,2126.25
2023-05-06T07:15:54.324Z,2188.12
2023-05-06T07:16:54.349Z,2221.88
2023-05-06T07:17:54.388Z,2362.50
2023-05-06T07:18:54.308Z,2351.25
2023-05-06T07:19:54.303Z,2430.00
2023-05-06T07:20:54.284Z,2407.50
2023-05-06T07:21:54.260Z,2418.75
2023-05-06T07:22:54.276Z,2418.75
2023-05-06T07:23:54.234Z,2413.12
2023-05-06T07:24:54.254Z,2508.75
2023-05-06T07:25:54.266Z,2401.88
2023-05-06T07:26:54.221Z,2362.50
2023-05-06T07:27:54.239Z,2356.88
2023-05-06T07:28:54.185Z,2413.12
2023-05-06T07:29:54.184Z,2317.50
2023-05-06T07:30:54.196Z,2536.88
2023-05-06T07:31:54.144Z,2615.62
2023-05-06T07:32:54.195Z,2548.12
2023-05-06T07:33:54.143Z,2649.38
2023-05-06T07:34:54.131Z,2649.38
2023-05-06T07:35:54.114Z,2632.50
2023-05-06T07:36:54.092Z,2626.88
2023-05-06T07:37:54.121Z,2677.50
2023-05-06T07:38:54.077Z,2683.12
2023-05-06T07:39:54.076Z,2700.00
2023-05-06T07:40:54.058Z,2671.88
2023-05-06T07:41:54.042Z,2795.62
2023-05-06T07:42:54.031Z,2863.12
2023-05-06T07:43:54.029Z,2705.62
2023-05-06T07:44:54.090Z,2520.00
2023-05-06T07:45:54.041Z,2536.88
2023-05-06T07:46:54.096Z,2610.00
2023-05-06T07:47:54.103Z,2581.88
2023-05-06T07:48:53.977Z,2801.25
2023-05-06T07:49:53.951Z,2722.50
2023-05-06T07:50:53.944Z,2649.38
2023-05-06T07:51:53.936Z,2705.62
2023-05-06T07:52:53.922Z,2750.62
2023-05-06T07:53:53.956Z,2638.12
2023-05-06T07:54:53.936Z,2593.12
2023-05-06T07:55:53.911Z,2756.25
2023-05-06T07:56:54.011Z,2761.88
2023-05-06T07:57:53.869Z,2728.12
2023-05-06T07:58:53.885Z,2756.25
2023-05-06T07:59:53.865Z,2542.50
2023-05-06T08:00:53.836Z,2238.75
2023-05-06T08:01:53.820Z,2176.88
2023-05-06T08:02:53.908Z,2756.25
2023-05-06T08:03:53.880Z,2863.12
2023-05-06T08:04:53.913Z,2874.38
2023-05-06T08:05:53.788Z,3048.75
2023-05-06T08:06:53.771Z,3335.62
2023-05-06T08:07:53.778Z,3526.88
2023-05-06T08:08:53.759Z,3369.38
2023-05-06T08:09:53.740Z,3301.88
2023-05-06T08:10:53.733Z,2896.88
2023-05-06T08:11:53.748Z,3155.62
2023-05-06T08:12:53.797Z,3155.62
2023-05-06T08:13:53.696Z,3335.62
2023-05-06T08:14:53.694Z,1423.12
2023-05-06T08:15:53.706Z,3211.88
2023-05-06T08:16:53.718Z,1333.12
2023-05-06T08:17:53.722Z,2075.62
2023-05-06T08:18:53.654Z,1620.00
2023-05-06T08:19:53.640Z,2452.50
2023-05-06T08:20:53.733Z,3504.38
2023-05-06T08:21:53.628Z,3403.12
2023-05-06T08:22:53.612Z,3313.12
2023-05-06T08:23:53.587Z,3369.38
2023-05-06T08:24:53.593Z,3425.62
2023-05-06T08:25:53.654Z,3538.12
2023-05-06T08:26:53.569Z,3600.00
2023-05-06T08:27:53.545Z,3166.88
2023-05-06T08:28:53.543Z,3195.00
2023-05-06T08:29:53.577Z,3228.75
2023-05-06T08:30:53.534Z,3217.50
2023-05-06T08:31:53.596Z,3150.00
2023-05-06T08:32:53.530Z,3228.75
2023-05-06T08:33:54.791Z,3228.75
2023-05-06T08:34:53.586Z,3251.25
2023-05-06T08:35:53.474Z,3268.12
2023-05-06T08:36:53.475Z,3245.62
2023-05-06T08:37:53.464Z,3285.00
2023-05-06T08:38:53.444Z,3414.38
2023-05-06T08:39:53.459Z,3380.62
2023-05-06T08:40:53.443Z,3318.75
2023-05-06T08:41:53.420Z,3543.75
2023-05-06T08:42:53.407Z,3616.88
2023-05-06T08:43:53.393Z,3639.38
2023-05-06T08:44:53.438Z,3375.00
2023-05-06T08:45:53.409Z,3048.75
2023-05-06T08:46:53.383Z,3110.62
2023-05-06T08:47:53.383Z,3285.00
2023-05-06T08:48:53.354Z,3352.50
2023-05-06T08:49:53.340Z,3391.88
2023-05-06T08:50:53.419Z,3487.50
2023-05-06T08:51:53.308Z,3071.25
2023-05-06T08:52:53.330Z,3076.88
2023-05-06T08:53:53.288Z,3195.00
2023-05-06T08:54:53.273Z,3065.62
2023-05-06T08:55:53.347Z,3150.00
2023-05-06T08:56:53.257Z,3425.62
2023-05-06T08:57:53.246Z,3510.00
2023-05-06T08:58:53.264Z,3571.88
2023-05-06T08:59:53.230Z,3526.88
2023-05-06T09:00:53.236Z,3403.12
2023-05-06T09:01:53.211Z,3695.62
2023-05-06T09:02:53.373Z,3577.50
2023-05-06T09:03:53.239Z,3538.12
2023-05-06T09:04:53.186Z,3903.75
2023-05-06T09:05:53.152Z,3836.25
2023-05-06T09:06:53.176Z,3931.88
2023-05-06T09:07:53.466Z,3875.62
2023-05-06T09:08:53.136Z,3555.00
2023-05-06T09:09:53.187Z,3667.50
2023-05-06T09:10:53.112Z,3701.25
2023-05-06T09:11:53.138Z,3892.50
2023-05-06T09:12:53.163Z,4078.12
2023-05-06T09:13:53.078Z,4005.00
2023-05-06T09:14:53.076Z,3723.75
2023-05-06T09:15:53.052Z,3690.00
2023-05-06T09:16:53.304Z,3740.62
2023-05-06T09:17:53.115Z,3583.12
2023-05-06T09:18:53.025Z,3571.88
2023-05-06T09:19:53.015Z,3740.62
2023-05-06T09:20:53.004Z,3751.88
2023-05-06T09:21:53.013Z,3785.62
2023-05-06T09:22:53.037Z,3740.62
2023-05-06T09:23:52.988Z,3656.25
2023-05-06T09:24:52.977Z,3746.25
2023-05-06T09:25:52.982Z,3661.88
2023-05-06T09:26:52.986Z,3853.12
2023-05-06T09:27:52.933Z,4196.25
2023-05-06T09:28:52.937Z,4190.62
2023-05-06T09:29:52.933Z,4072.50
2023-05-06T09:30:52.924Z,4061.25
2023-05-06T09:31:52.890Z,3909.38
2023-05-06T09:32:52.931Z,3915.00
2023-05-06T09:33:52.998Z,3870.00
2023-05-06T09:34:52.916Z,3808.12
2023-05-06T09:35:52.872Z,3656.25
2023-05-06T09:36:52.865Z,3864.38
2023-05-06T09:37:52.865Z,3487.50
2023-05-06T09:38:52.832Z,3549.38
2023-05-06T09:39:52.839Z,3645.00
2023-05-06T09:40:52.836Z,3678.75
2023-05-06T09:41:52.812Z,3853.12
2023-05-06T09:42:52.791Z,3988.12
2023-05-06T09:43:52.855Z,3802.50
2023-05-06T09:44:52.779Z,3903.75
2023-05-06T09:45:52.816Z,3819.38
2023-05-06T09:46:52.783Z,3870.00
2023-05-06T09:47:52.764Z,3909.38
2023-05-06T09:48:52.767Z,3988.12
2023-05-06T09:49:52.733Z,4033.12
2023-05-06T09:50:52.719Z,4151.25
2023-05-06T09:51:52.698Z,3965.62
2023-05-06T09:52:52.709Z,3746.25
2023-05-06T09:53:52.689Z,3324.38
2023-05-06T09:54:52.685Z,3363.75
2023-05-06T09:55:52.662Z,3543.75
2023-05-06T09:56:52.658Z,3729.38
2023-05-06T09:57:52.643Z,4044.38
2023-05-06T09:58:52.720Z,3982.50
2023-05-06T09:59:52.678Z,3701.25
2023-05-06T10:00:52.627Z,3538.12
2023-05-06T10:18:50.663Z,4055.62
2023-05-06T10:19:50.649Z,4038.75
2023-05-06T10:20:50.676Z,4140.00
2023-05-06T10:21:50.619Z,3909.38
2023-05-06T10:22:50.591Z,3774.38
2023-05-06T10:23:50.588Z,3931.88
2023-05-06T10:24:50.579Z,4314.38
2023-05-06T10:25:50.567Z,4325.62
2023-05-06T10:26:50.576Z,4331.25
2023-05-06T10:27:50.576Z,4291.88
2023-05-06T10:28:50.530Z,4359.38
2023-05-06T10:29:50.585Z,4134.38
2023-05-06T10:30:50.555Z,4263.75
2023-05-06T10:31:50.603Z,4466.25
2023-05-06T10:32:50.518Z,4123.12
2023-05-06T10:33:50.486Z,3960.00
2023-05-06T10:34:50.468Z,4590.00
2023-05-06T10:35:50.501Z,4320.00
2023-05-06T10:36:50.471Z,4275.00
2023-05-06T10:37:50.473Z,4123.12
2023-05-06T10:38:50.432Z,3853.12
2023-05-06T10:39:50.430Z,3819.38
2023-05-06T10:40:50.452Z,3920.62
2023-05-06T10:41:50.419Z,3875.62
2023-05-06T10:42:50.428Z,3875.62
2023-05-06T10:43:50.412Z,3808.12
2023-05-06T10:44:50.406Z,4168.12
2023-05-06T10:45:50.424Z,4460.62
2023-05-06T10:46:50.361Z,4308.75
2023-05-06T10:47:50.385Z,4263.75
2023-05-06T10:48:50.331Z,4331.25
2023-05-06T10:49:50.344Z,4331.25
2023-05-06T10:50:50.345Z,2452.50
2023-05-06T10:51:50.309Z,2610.00
2023-05-06T10:52:50.360Z,4398.75
2023-05-06T10:53:50.312Z,4111.88
2023-05-06T10:54:50.410Z,4494.38
2023-05-06T10:55:50.285Z,4145.62
2023-05-06T10:56:50.290Z,3054.38
2023-05-06T10:57:50.253Z,2407.50
2023-05-06T10:58:50.260Z,2340.00
2023-05-06T10:59:50.254Z,1766.25
2023-05-06T11:00:50.243Z,1665.00
2023-05-06T11:01:50.353Z,1766.25
2023-05-06T11:02:50.259Z,2019.38
2023-05-06T11:03:50.234Z,2086.88
2023-05-06T11:04:50.201Z,2030.62
2023-05-06T11:05:50.202Z,2390.62
2023-05-06T11:06:50.196Z,2120.62
2023-05-06T11:07:50.187Z,1878.75
2023-05-06T11:08:50.163Z,2424.38
2023-05-06T11:09:50.163Z,2323.12
2023-05-06T11:10:50.165Z,2193.75
2023-05-06T11:11:50.142Z,2362.50
2023-05-06T11:12:50.229Z,2851.88
2023-05-06T11:13:50.702Z,2283.75
2023-05-06T11:14:50.093Z,2328.75
2023-05-06T11:15:50.187Z,2553.75
2023-05-06T11:16:50.150Z,1816.88
2023-05-06T11:17:50.145Z,1822.50
2023-05-06T11:18:50.040Z,1974.38
2023-05-06T11:19:50.039Z,1670.62
2023-05-06T11:20:50.043Z,1811.25
2023-05-06T11:21:50.711Z,1968.75
2023-05-06T11:22:50.058Z,1648.12
2023-05-06T11:23:50.034Z,1743.75
2023-05-06T11:24:50.059Z,2002.50
2023-05-06T11:25:50.056Z,3481.88
2023-05-06T11:26:50.113Z,2368.12
2023-05-06T11:27:50.953Z,1771.88
2023-05-06T11:28:50.002Z,1867.50
2023-05-06T11:29:50.008Z,3110.62
2023-05-06T11:30:50.094Z,2626.88
2023-05-06T11:31:50.009Z,2182.50
2023-05-06T11:32:50.057Z,3718.12
2023-05-06T11:33:50.005Z,3909.38
2023-05-06T11:34:49.998Z,3026.25
2023-05-06T11:35:49.922Z,2334.38
2023-05-06T11:36:49.953Z,3318.75
2023-05-06T11:37:50.228Z,1985.62
2023-05-06T11:38:50.032Z,3459.38
2023-05-06T11:39:49.997Z,2171.25
2023-05-06T11:40:49.974Z,2812.50
2023-05-06T11:41:49.892Z,3661.88
2023-05-06T11:42:49.860Z,3459.38
2023-05-06T11:43:50.068Z,3746.25
2023-05-06T11:44:50.091Z,3650.62
2023-05-06T11:45:49.943Z,3543.75
2023-05-06T11:46:49.971Z,3628.12
2023-05-06T11:47:49.949Z,3521.25
2023-05-06T11:48:49.831Z,3448.12
2023-05-06T11:49:50.138Z,3279.38
2023-05-06T11:50:49.961Z,3279.38
2023-05-06T11:51:49.764Z,3375.00
2023-05-06T11:52:49.770Z,3757.50
2023-05-06T11:53:49.834Z,3003.75
2023-05-06T11:54:50.278Z,3633.75
2023-05-06T11:55:49.792Z,4061.25
2023-05-06T11:56:49.770Z,4320.00
2023-05-06T11:57:49.757Z,4050.00
2023-05-06T11:58:49.705Z,4078.12
2023-05-06T11:59:49.791Z,3875.62
2023-05-06T12:00:51.217Z,3785.62
2023-05-06T12:01:49.622Z,3583.12
2023-05-06T12:02:49.807Z,3976.88
2023-05-06T12:03:49.838Z,4297.50
2023-05-06T12:04:49.859Z,2778.75
2023-05-06T12:05:49.648Z,2238.75
2023-05-06T12:06:49.754Z,2891.25
2023-05-06T12:07:49.658Z,2075.62
2023-05-06T12:08:49.573Z,2593.12
2023-05-06T12:09:49.742Z,1653.75
2023-05-06T12:10:49.542Z,1468.12
2023-05-06T12:11:49.556Z,1586.25
2023-05-06T12:12:49.603Z,1676.25
2023-05-06T12:13:49.545Z,1940.62
2023-05-06T12:14:49.513Z,2610.00
2023-05-06T12:15:49.550Z,2705.62
2023-05-06T12:16:49.537Z,3870.00
2023-05-06T12:17:49.503Z,3796.88
2023-05-06T12:18:49.494Z,3723.75
2023-05-06T12:19:49.481Z,3515.62
2023-05-06T12:20:49.437Z,3290.62
2023-05-06T12:21:49.448Z,3330.00
2023-05-06T12:22:49.486Z,3481.88
2023-05-06T12:23:49.476Z,3234.38
2023-05-06T12:24:49.445Z,3065.62
2023-05-06T12:25:49.467Z,3178.12
2023-05-06T12:26:49.389Z,3121.88
2023-05-06T12:27:49.385Z,1428.75
2023-05-06T12:28:49.366Z,1530.00
2023-05-06T12:29:49.353Z,1220.62
2023-05-06T12:30:49.348Z,1265.62
2023-05-06T12:31:49.371Z,1434.38
2023-05-06T12:32:49.382Z,2053.12
2023-05-06T12:33:49.312Z,1468.12
2023-05-06T12:34:49.352Z,1586.25
2023-05-06T12:35:49.296Z,1822.50
2023-05-06T12:36:49.284Z,1389.38
2023-05-06T12:37:49.295Z,1310.62
2023-05-06T12:38:49.260Z,1288.12
2023-05-06T12:39:49.353Z,1248.75
2023-05-06T12:40:49.239Z,1220.62
2023-05-06T12:41:49.233Z,1209.38
2023-05-06T12:42:49.247Z,1254.38
2023-05-06T12:43:49.202Z,1327.50
2023-05-06T12:44:49.205Z,1451.25
2023-05-06T12:45:49.198Z,2216.25
2023-05-06T12:46:49.189Z,2311.88
2023-05-06T12:47:49.219Z,2323.12
2023-05-06T12:48:49.181Z,2317.50
2023-05-06T12:49:49.154Z,2216.25